Time;durP1;ratioP1;P1;durP2;ratioP2;P2;SDS_P1;SDS_P2;PMS_P1;PMS_P2;Temp;Humidity;BMP_temperature;BMP_pressure;BME280_temperature;BME280_humidity;BME280_pressure;Samples;Min_cycle;Max_cycle;Signal;HPM_P1;HPM_P2
2023/06/19 00:02:25;;;;;;;7.25;6.65;;;;;;;26.59;42.36;98147.47;5080599;27;102975;-73
2023/06/19 00:04:53;;;;;;;8.63;7.90;;;;;;;25.67;43.94;98151.03;5079865;27;103915;-73
2023/06/19 00:07:21;;;;;;;8.60;7.80;;;;;;;25.74;44.17;98159.13;5101524;27;103270;-73
2023/06/19 00:09:49;;;;;;;8.27;7.57;;;;;;;25.38;44.33;98157.03;5103274;27;103262;-73
2023/06/19 00:12:19;;;;;;;7.57;6.97;;;;;;;25.57;44.43;98153.38;5077650;27;103090;-73
2023/06/19 00:14:47;;;;;;;6.07;5.68;;;;;;;25.83;44.06;98161.31;5076128;27;104109;-73
2023/06/19 00:17:16;;;;;;;8.70;8.00;;;;;;;25.22;45.86;98155.69;5097208;27;103319;-74
2023/06/19 00:19:44;;;;;;;8.90;8.07;;;;;;;25.11;45.81;98150.97;5083522;27;104508;-73
2023/06/19 00:22:12;;;;;;;8.10;7.40;;;;;;;25.02;46.55;98151.41;5099144;27;103386;-73
2023/06/19 00:24:40;;;;;;;8.30;7.60;;;;;;;25.06;45.98;98161.59;5074540;27;104186;-73
2023/06/19 00:27:08;;;;;;;8.52;7.72;;;;;;;24.91;46.69;98160.19;5091546;27;103076;-73
2023/06/19 00:29:37;;;;;;;8.35;7.65;;;;;;;24.91;46.92;98161.03;5074667;27;103192;-73
2023/06/19 00:32:06;;;;;;;6.53;6.03;;;;;;;25.28;45.78;98162.09;5096598;27;102745;-73
2023/06/19 00:34:36;;;;;;;8.37;7.67;;;;;;;24.95;47.32;98156.03;5091886;27;103052;-73
2023/06/19 00:37:07;;;;;;;6.57;6.07;;;;;;;25.11;46.33;98160.94;5076984;27;103997;-73
2023/06/19 00:39:37;;;;;;;8.32;7.63;;;;;;;25.28;47.15;98167.50;5079852;27;103263;-73
2023/06/19 00:42:08;;;;;;;7.55;6.95;;;;;;;25.10;47.03;98159.25;5075939;27;103077;-73
2023/06/19 00:44:35;;;;;;;7.53;6.82;;;;;;;25.32;46.62;98161.44;5074114;27;102874;-73
2023/06/19 00:47:05;;;;;;;8.82;8.02;;;;;;;25.22;46.78;98168.34;5077671;27;103322;-73
2023/06/19 00:49:33;;;;;;;7.93;7.32;;;;;;;25.13;46.90;98164.25;5077230;27;103211;-73
2023/06/19 00:52:03;;;;;;;8.40;7.70;;;;;;;25.17;46.96;98165.47;5079921;27;103046;-73
2023/06/19 00:54:32;;;;;;;8.50;7.70;;;;;;;24.75;48.07;98177.69;5076426;27;102750;-73
2023/06/19 00:57:01;;;;;;;9.20;8.30;;;;;;;24.24;48.98;98174.91;5075925;27;104304;-75
2023/06/19 00:59:30;;;;;;;8.13;7.50;;;;;;;24.55;48.50;98172.34;5074452;27;103312;-73
2023/06/19 01:01:58;;;;;;;6.55;6.05;;;;;;;25.21;46.42;98180.19;5076832;27;102774;-73
2023/06/19 01:04:27;;;;;;;6.80;6.30;;;;;;;25.24;47.51;98174.38;5075086;27;102773;-73
2023/06/19 01:07:09;;;;;;;7.90;7.30;;;;;;;25.22;47.72;98184.56;5075508;27;105412;-73
2023/06/19 01:09:45;;;;;;;7.75;7.15;;;;;;;25.37;47.08;98199.44;5092431;27;103417;-73
2023/06/19 01:12:16;;;;;;;7.78;7.00;;;;;;;25.55;46.56;98222.25;5093162;27;102885;-73
2023/06/19 01:14:54;;;;;;;8.25;7.55;;;;;;;24.85;47.34;98242.91;5073490;27;103197;-73
2023/06/19 01:17:23;;;;;;;6.90;6.30;;;;;;;25.45;45.90;98241.66;5092666;27;103308;-74
2023/06/19 01:19:54;;;;;;;7.63;6.20;;;;;;;25.48;44.97;98240.41;5093480;27;103281;-74
2023/06/19 01:22:30;;;;;;;8.50;5.80;;;;;;;25.70;44.52;98242.56;5072712;27;104641;-74
2023/06/19 01:25:01;;;;;;;6.38;5.70;;;;;;;25.89;44.50;98244.31;5078193;27;103382;-74
2023/06/19 01:27:31;;;;;;;6.63;5.80;;;;;;;25.89;44.35;98240.78;5084959;27;104345;-73
2023/06/19 01:30:02;;;;;;;6.43;5.93;;;;;;;25.44;45.00;98239.97;5089255;27;103210;-74
2023/06/19 01:32:35;;;;;;;6.47;5.57;;;;;;;25.85;44.74;98243.06;5107469;27;103459;-74
2023/06/19 01:35:04;;;;;;;6.03;5.53;;;;;;;25.97;44.48;98245.09;5105155;27;104261;-74
2023/06/19 01:37:34;;;;;;;5.67;5.07;;;;;;;25.90;44.68;98245.16;5086386;27;103217;-74
2023/06/19 01:40:06;;;;;;;6.43;5.82;;;;;;;25.63;45.48;98247.19;5080069;27;103267;-74
2023/06/19 01:42:36;;;;;;;6.25;5.65;;;;;;;25.61;45.51;98257.38;5077003;27;103054;-74
2023/06/19 01:45:05;;;;;;;4.88;4.47;;;;;;;25.82;44.97;98254.38;5081124;27;103349;-74
2023/06/19 01:47:33;;;;;;;5.15;4.65;;;;;;;25.89;45.10;98259.72;5072730;27;104328;-74
2023/06/19 01:50:01;;;;;;;5.00;4.57;;;;;;;25.79;45.99;98257.50;5073738;27;103354;-74
2023/06/19 01:52:33;;;;;;;4.73;4.20;;;;;;;25.78;45.90;98253.13;5095978;27;102637;-74
2023/06/19 01:55:02;;;;;;;5.13;4.73;;;;;;;25.37;46.97;98260.81;5076938;27;103962;-74
2023/06/19 01:57:30;;;;;;;5.03;4.53;;;;;;;25.06;48.15;98271.56;5076794;27;104532;-74
2023/06/19 01:59:58;;;;;;;4.82;4.40;;;;;;;25.47;47.21;98269.31;5077660;27;104459;-74
2023/06/19 02:02:26;;;;;;;4.80;4.33;;;;;;;25.21;47.76;98259.41;5080546;27;102993;-74
2023/06/19 02:04:54;;;;;;;3.78;3.58;;;;;;;25.24;48.76;98264.41;5076348;27;103757;-74
2023/06/19 02:07:24;;;;;;;4.85;4.20;;;;;;;24.92;49.52;98264.53;5080010;27;104552;-74
2023/06/19 02:09:53;;;;;;;8.68;4.25;;;;;;;25.16;49.38;98266.50;5075412;27;104177;-74
2023/06/19 02:12:22;;;;;;;4.60;4.10;;;;;;;25.29;49.29;98256.47;5070962;27;103235;-74
2023/06/19 02:14:50;;;;;;;3.97;3.58;;;;;;;25.51;48.74;98259.75;5080587;27;104530;-74
2023/06/19 02:17:19;;;;;;;4.40;4.00;;;;;;;25.48;48.95;98254.78;5076829;27;104294;-74
2023/06/19 02:19:47;;;;;;;5.33;3.70;;;;;;;25.04;50.29;98257.44;5076420;27;103267;-74
2023/06/19 02:22:14;;;;;;;4.32;3.92;;;;;;;25.03;50.22;98261.16;5101553;27;102657;-74
2023/06/19 02:24:44;;;;;;;3.45;3.15;;;;;;;25.29;49.84;98250.25;5086676;27;102993;-74
2023/06/19 02:27:15;;;;;;;5.57;4.18;;;;;;;24.99;50.35;98254.50;5086744;27;104307;-74
2023/06/19 02:29:43;;;;;;;4.60;4.10;;;;;;;25.01;51.16;98255.16;5085830;27;103170;-74
2023/06/19 02:32:11;;;;;;;4.35;3.47;;;;;;;25.11;50.69;98260.94;5078910;27;103499;-74
2023/06/19 02:34:39;;;;;;;3.50;3.20;;;;;;;25.31;50.27;98258.97;5082391;27;104368;-74
2023/06/19 02:37:08;;;;;;;3.85;3.47;;;;;;;25.25;50.67;98254.44;5073680;27;103820;-75
2023/06/19 02:39:37;;;;;;;3.10;2.90;;;;;;;25.41;50.45;98259.34;5093768;27;104592;-74
2023/06/19 02:42:06;;;;;;;3.03;2.83;;;;;;;25.48;49.39;98253.94;5071664;27;102738;-73
2023/06/19 02:48:47;;;;;;;3.28;3.08;;;;;;;25.48;49.68;98259.34;5087703;27;103192;-74
2023/06/19 02:51:15;;;;;;;3.40;3.20;;;;;;;25.42;50.39;98265.56;5094167;27;103304;-74
2023/06/19 02:53:43;;;;;;;3.45;3.15;;;;;;;25.50;50.04;98266.19;5086304;27;103394;-73
2023/06/19 02:56:12;;;;;;;3.45;3.15;;;;;;;25.54;50.15;98264.72;5082178;27;104719;-74
2023/06/19 02:58:40;;;;;;;3.40;3.20;;;;;;;25.54;49.86;98263.91;5077028;27;103327;-76
2023/06/19 03:01:09;;;;;;;3.42;3.03;;;;;;;25.52;49.97;98274.06;5075865;27;104070;-75
2023/06/19 03:03:38;;;;;;;3.30;3.10;;;;;;;25.44;50.06;98275.13;5072569;27;102950;-75
2023/06/19 03:06:08;;;;;;;4.00;3.70;;;;;;;25.35;50.62;98279.13;5077918;27;104303;-75
2023/06/19 03:08:36;;;;;;;3.45;3.25;;;;;;;25.28;50.93;98286.44;5086708;27;105814;-75
2023/06/19 03:11:05;;;;;;;3.40;3.20;;;;;;;25.39;51.00;98285.75;5087680;27;103388;-75
2023/06/19 03:13:45;;;;;;;3.38;3.10;;;;;;;25.43;50.58;98284.31;5110362;27;102925;-75
2023/06/19 03:16:14;;;;;;;3.75;3.50;;;;;;;25.46;50.14;98289.25;5108136;27;102996;-75
2023/06/19 03:18:44;;;;;;;3.70;3.40;;;;;;;25.41;50.47;98285.53;5107414;27;103533;-75
2023/06/19 03:21:14;;;;;;;3.63;3.33;;;;;;;25.60;50.29;98290.06;5086400;27;105191;-75
2023/06/19 03:23:43;;;;;;;4.07;3.67;;;;;;;25.64;49.92;98294.81;5087571;27;102805;-75
2023/06/19 03:26:12;;;;;;;3.27;3.07;;;;;;;25.69;49.65;98303.13;5091939;27;104691;-76
2023/06/19 03:28:42;;;;;;;3.90;3.60;;;;;;;25.42;50.58;98300.72;5088864;27;104156;-76
2023/06/19 03:31:10;;;;;;;3.35;3.10;;;;;;;25.37;51.03;98295.97;5090356;27;103463;-76
2023/06/19 03:33:38;;;;;;;3.07;2.77;;;;;;;25.58;50.14;98300.25;5087610;27;102940;-75
2023/06/19 03:36:09;;;;;;;4.00;3.70;;;;;;;25.62;50.10;98304.22;5081422;27;103638;-75
2023/06/19 03:38:56;;;;;;;3.88;3.58;;;;;;;25.30;50.42;98305.97;5090390;27;104494;-73
2023/06/19 03:41:28;;;;;;;3.72;3.38;;;;;;;24.88;51.88;98303.81;5087684;27;103219;-73
2023/06/19 03:43:56;;;;;;;3.07;2.87;;;;;;;25.17;50.55;98306.03;5105586;27;102799;-73
2023/06/19 03:46:25;;;;;;;2.80;2.60;;;;;;;25.29;50.64;98310.53;5087994;27;104253;-74
2023/06/19 03:48:53;;;;;;;3.22;3.03;;;;;;;25.20;50.89;98317.25;5088112;27;104403;-73
2023/06/19 03:51:21;;;;;;;3.20;2.90;;;;;;;25.16;51.50;98325.97;5106192;27;102961;-75
2023/06/19 03:53:49;;;;;;;3.20;2.90;;;;;;;25.03;51.18;98326.00;5104027;27;102655;-76
2023/06/19 03:56:19;;;;;;;23.58;21.83;;;;;;;25.10;51.02;98327.66;5088593;27;102755;-75
2023/06/19 03:58:47;;;;;;;4.53;4.22;;;;;;;24.70;52.39;98326.06;5101074;27;103266;-76
2023/06/19 04:01:15;;;;;;;3.13;2.92;;;;;;;25.06;51.49;98325.59;5087803;27;103297;-77
2023/06/19 04:03:43;;;;;;;4.22;3.03;;;;;;;24.71;52.20;98333.09;5085084;27;102690;-77
2023/06/19 04:06:11;;;;;;;3.20;2.95;;;;;;;24.82;52.65;98328.94;5086469;27;103003;-77
2023/06/19 04:08:40;;;;;;;3.90;3.60;;;;;;;24.64;52.52;98321.47;5083911;27;103292;-77
2023/06/19 04:11:11;;;;;;;3.95;3.60;;;;;;;24.46;53.28;98329.34;5088302;27;103350;-77
2023/06/19 04:13:41;;;;;;;3.65;3.25;;;;;;;24.74;52.43;98338.06;5105061;27;102700;-76
2023/06/19 04:16:09;;;;;;;3.03;2.83;;;;;;;24.56;53.33;98336.00;5105663;27;104016;-77
2023/06/19 04:18:39;;;;;;;3.55;2.95;;;;;;;24.59;52.99;98346.38;5087591;27;104000;-77
2023/06/19 04:21:09;;;;;;;2.83;2.53;;;;;;;24.67;52.69;98343.47;5089905;27;103351;-77
2023/06/19 04:23:40;;;;;;;3.20;2.90;;;;;;;24.23;53.59;98351.34;5086270;27;102819;-78
2023/06/19 04:26:08;;;;;;;2.78;2.58;;;;;;;24.20;54.23;98349.06;5084817;27;102838;-77
2023/06/19 04:28:35;;;;;;;2.75;2.55;;;;;;;24.43;54.25;98352.22;5089037;27;103266;-78
2023/06/19 04:31:05;;;;;;;3.03;2.72;;;;;;;24.46;54.09;98362.59;5106280;27;103459;-77
2023/06/19 04:33:33;;;;;;;2.73;2.50;;;;;;;24.58;53.95;98360.13;5107463;27;102882;-78
2023/06/19 04:36:01;;;;;;;2.58;2.28;;;;;;;24.66;55.25;98359.91;5088439;27;104126;-78
2023/06/19 04:38:29;;;;;;;2.50;2.30;;;;;;;24.95;54.37;98361.38;5105083;27;103854;-78
2023/06/19 04:40:57;;;;;;;2.53;2.33;;;;;;;24.88;53.17;98349.72;5087861;27;103166;-78
2023/06/19 04:43:27;;;;;;;2.63;2.42;;;;;;;25.11;54.54;98350.94;5107288;27;102741;-78
2023/06/19 04:45:55;;;;;;;2.90;2.60;;;;;;;25.22;54.25;98362.97;5107060;27;104047;-78
2023/06/19 04:48:25;;;;;;;2.65;2.45;;;;;;;25.22;54.41;98362.97;5105902;27;103245;-78
2023/06/19 04:50:55;;;;;;;3.03;2.63;;;;;;;25.07;54.64;98359.66;5096797;27;103204;-77
2023/06/19 04:53:24;;;;;;;2.78;2.22;;;;;;;25.17;55.23;98360.06;5092439;27;102963;-78
2023/06/19 04:55:54;;;;;;;2.85;2.65;;;;;;;25.33;53.81;98351.50;5085658;27;102802;-78
2023/06/19 04:58:22;;;;;;;2.70;2.50;;;;;;;25.30;55.91;98360.88;5107478;27;104207;-78
2023/06/19 05:00:51;;;;;;;2.38;2.17;;;;;;;25.47;55.00;98361.25;5103896;27;103221;-78
2023/06/19 05:03:19;;;;;;;2.80;2.60;;;;;;;25.66;55.57;98352.25;5103045;27;102745;-77
2023/06/19 05:05:48;;;;;;;3.17;2.60;;;;;;;25.62;54.61;98359.13;5108336;27;104114;-78
2023/06/19 05:08:16;;;;;;;2.90;2.67;;;;;;;25.85;53.68;98362.13;5089513;27;103952;-80
2023/06/19 05:10:44;;;;;;;2.72;2.53;;;;;;;26.01;52.55;98363.53;5085445;27;103266;-71
2023/06/19 05:13:13;;;;;;;2.95;2.75;;;;;;;26.03;51.86;98371.41;5106782;27;102916;-74
2023/06/19 05:15:41;;;;;;;3.20;3.00;;;;;;;26.09;52.13;98375.97;5086386;27;103731;-72
2023/06/19 05:18:09;;;;;;;2.97;2.67;;;;;;;26.18;52.08;98367.41;5106306;27;103516;-72
2023/06/19 05:20:37;;;;;;;3.05;2.85;;;;;;;26.06;52.70;98365.56;5104649;27;103307;-72
2023/06/19 05:23:06;;;;;;;3.10;2.80;;;;;;;25.85;53.16;98362.13;5099496;27;102712;-72
2023/06/19 05:25:34;;;;;;;3.03;2.73;;;;;;;26.01;52.82;98368.09;5101229;27;104625;-73
2023/06/19 05:28:05;;;;;;;2.97;2.67;;;;;;;26.03;52.42;98371.41;5105675;27;103271;-73
2023/06/19 05:30:33;;;;;;;3.05;2.85;;;;;;;26.03;52.75;98371.41;5105396;27;103195;-71
2023/06/19 05:33:01;;;;;;;3.17;2.80;;;;;;;26.23;54.00;98369.44;5085383;27;102690;-73
2023/06/19 05:35:30;;;;;;;2.33;2.13;;;;;;;26.37;54.16;98368.31;5051138;27;103360;-80
2023/06/19 05:37:58;;;;;;;2.53;2.33;;;;;;;26.25;53.07;98376.31;5056423;27;103888;-78
2023/06/19 05:40:28;;;;;;;3.20;2.80;;;;;;;25.89;55.86;98379.59;5027684;27;103989;-78
2023/06/19 05:42:56;;;;;;;2.70;2.50;;;;;;;26.20;54.58;98386.97;5046558;27;102906;-77
2023/06/19 05:45:24;;;;;;;2.90;2.70;;;;;;;26.32;53.75;98387.09;5062033;27;102926;-78
2023/06/19 05:47:52;;;;;;;3.67;3.20;;;;;;;26.18;56.77;98390.94;5038857;27;103312;-79
2023/06/19 05:50:22;;;;;;;3.00;2.80;;;;;;;26.29;56.13;98388.38;5062410;27;103401;-80
2023/06/19 05:52:50;;;;;;;2.60;2.40;;;;;;;26.36;55.66;98399.13;5044283;27;103714;-78
2023/06/19 05:55:21;;;;;;;3.83;3.00;;;;;;;26.29;56.40;98403.78;5063139;27;104148;-78
2023/06/19 05:57:50;;;;;;;2.60;2.40;;;;;;;26.13;56.68;98407.81;5047848;27;103386;-78
2023/06/19 06:00:19;;;;;;;3.00;2.75;;;;;;;26.35;56.87;98408.31;5068382;27;103296;-78
2023/06/19 06:02:47;;;;;;;2.53;2.33;;;;;;;26.21;56.08;98409.47;5061001;27;102629;-77
2023/06/19 06:05:16;;;;;;;3.08;2.88;;;;;;;26.33;55.30;98411.25;5052128;27;104018;-77
2023/06/19 06:07:46;;;;;;;3.73;2.93;;;;;;;26.21;55.00;98409.47;5047907;27;103334;-78
2023/06/19 06:10:16;;;;;;;3.80;2.80;;;;;;;26.54;56.37;98399.22;5072060;27;103193;-79
2023/06/19 06:12:47;;;;;;;2.63;2.42;;;;;;;26.65;56.09;98403.09;5044737;27;102881;-78
2023/06/19 06:15:17;;;;;;;4.45;3.28;;;;;;;25.43;57.95;98407.84;5047909;27;103839;-78
2023/06/19 06:17:47;;;;;;;2.70;2.50;;;;;;;26.12;54.83;98398.00;5059218;27;103252;-78
2023/06/19 06:20:16;;;;;;;2.50;2.30;;;;;;;26.89;54.68;98408.56;5066590;27;103273;-78
2023/06/19 06:22:44;;;;;;;3.33;2.95;;;;;;;26.38;52.50;98407.91;5033804;27;102747;-79
2023/06/19 06:25:14;;;;;;;2.70;2.28;;;;;;;26.85;52.09;98409.22;5044180;27;104148;-78
2023/06/19 06:27:42;;;;;;;2.90;2.55;;;;;;;26.77;51.91;98402.19;5064278;27;103363;-78
2023/06/19 06:30:12;;;;;;;3.05;2.78;;;;;;;27.05;51.27;98401.75;5065491;27;103194;-78
2023/06/19 06:32:42;;;;;;;2.85;2.53;;;;;;;27.13;52.56;98412.31;5064639;27;102744;-78
2023/06/19 06:35:10;;;;;;;2.97;2.70;;;;;;;27.20;51.34;98415.78;5066242;27;103858;-78
2023/06/19 06:37:38;;;;;;;2.90;2.53;;;;;;;26.79;51.98;98424.50;5065746;27;103824;-78
2023/06/19 06:40:10;;;;;;;3.10;2.72;;;;;;;26.25;53.25;98433.16;5059071;27;103467;-78
2023/06/19 06:42:38;;;;;;;3.10;2.80;;;;;;;26.79;52.62;98432.63;5063462;27;102743;-79
2023/06/19 06:45:08;;;;;;;2.90;2.70;;;;;;;27.01;53.23;98441.19;5053945;27;102835;-79
2023/06/19 06:47:36;;;;;;;2.70;2.50;;;;;;;26.87;53.09;98440.47;5046262;27;104263;-78
2023/06/19 06:50:13;;;;;;;3.40;2.70;;;;;;;26.70;51.78;98433.91;5052794;27;104247;-80
2023/06/19 06:52:41;;;;;;;4.57;2.70;;;;;;;27.05;51.71;98440.56;5069980;27;102620;-79
2023/06/19 06:55:09;;;;;;;2.15;2.05;;;;;;;27.41;49.96;98428.13;5053213;27;103773;-79
2023/06/19 06:57:37;;;;;;;3.55;2.42;;;;;;;27.12;50.61;98439.66;5055814;27;104546;-80
2023/06/19 07:00:09;;;;;;;2.30;2.20;;;;;;;27.23;50.91;98438.94;5047791;27;103353;-79
2023/06/19 07:02:39;;;;;;;2.70;2.23;;;;;;;27.14;50.61;98440.28;5072666;27;102869;-80
2023/06/19 07:05:09;;;;;;;3.23;2.50;;;;;;;27.36;50.04;98438.81;5065603;27;104361;-79
2023/06/19 07:07:38;;;;;;;2.80;2.50;;;;;;;27.11;50.64;98446.13;5072362;27;103281;-80
2023/06/19 07:10:07;;;;;;;3.28;2.45;;;;;;;27.31;49.42;98447.59;5066748;27;103295;-80
2023/06/19 07:12:36;;;;;;;2.40;2.10;;;;;;;27.58;49.11;98453.63;5042635;27;102827;-80
2023/06/19 07:15:07;;;;;;;2.50;2.30;;;;;;;27.38;49.25;98451.09;5072991;27;103673;-80
2023/06/19 07:17:34;;;;;;;2.60;2.10;;;;;;;26.92;50.19;98454.19;5065263;27;103692;-80
2023/06/19 07:20:02;;;;;;;2.00;1.90;;;;;;;27.76;48.73;98453.66;5068835;27;103197;-80
2023/06/19 07:22:31;;;;;;;2.70;2.50;;;;;;;26.54;50.91;98448.00;5055578;27;102696;-80
2023/06/19 07:25:00;;;;;;;2.72;2.53;;;;;;;27.09;50.00;98451.75;5057262;27;102669;-79
2023/06/19 07:27:28;;;;;;;2.20;2.10;;;;;;;27.19;50.28;98457.53;5068443;27;104075;-80
2023/06/19 07:29:56;;;;;;;2.33;2.23;;;;;;;27.32;49.48;98457.41;5070275;27;103305;-80
2023/06/19 07:32:24;;;;;;;2.35;2.15;;;;;;;27.29;49.64;98457.00;5070815;27;102648;-80
2023/06/19 07:34:52;;;;;;;2.60;2.40;;;;;;;27.10;50.53;98455.31;5059100;27;102737;-80
2023/06/19 07:37:20;;;;;;;2.70;2.50;;;;;;;27.59;49.97;98466.16;5059430;27;103360;-80
2023/06/19 07:39:49;;;;;;;2.30;2.20;;;;;;;27.77;49.40;98458.00;5050326;27;104131;-80
2023/06/19 07:42:19;;;;;;;2.60;2.40;;;;;;;27.61;49.23;98464.88;5045782;27;103971;-80
2023/06/19 07:44:50;;;;;;;2.58;2.38;;;;;;;27.82;48.80;98471.72;5066954;27;103833;-80
2023/06/19 07:47:18;;;;;;;2.67;2.47;;;;;;;27.93;48.48;98475.59;5061602;27;103908;-80
2023/06/19 07:49:46;;;;;;;2.30;2.00;;;;;;;27.97;47.75;98472.19;5069947;27;103378;-80
2023/06/19 07:52:14;;;;;;;3.00;2.10;;;;;;;27.86;48.00;98469.38;5061823;27;102738;-80
2023/06/19 07:54:53;;;;;;;2.20;2.08;;;;;;;28.09;48.08;98475.81;5060918;27;103878;-80
2023/06/19 07:57:23;;;;;;;2.53;2.30;;;;;;;27.99;47.88;98477.38;5051215;27;103437;-80
2023/06/19 07:59:52;;;;;;;2.50;2.30;;;;;;;28.07;48.21;98475.19;5072250;27;103159;-80
2023/06/19 08:02:20;;;;;;;2.38;2.28;;;;;;;28.42;47.74;98477.28;5041960;27;103062;-80
2023/06/19 08:04:48;;;;;;;2.40;2.20;;;;;;;28.90;46.72;98478.06;5069939;27;102958;-80
2023/06/19 08:07:16;;;;;;;2.63;2.30;;;;;;;28.45;47.61;98464.06;5042152;27;104137;-79
2023/06/19 08:09:44;;;;;;;2.40;2.20;;;;;;;28.43;46.43;98474.34;5064640;27;103541;-80
2023/06/19 08:12:18;;;;;;;2.17;1.97;;;;;;;28.07;47.12;98475.19;5051285;27;102961;-78
2023/06/19 08:14:48;;;;;;;2.40;2.10;;;;;;;28.29;46.50;98482.88;5070102;27;103947;-78
2023/06/19 08:17:15;;;;;;;2.30;2.10;;;;;;;28.93;45.19;98474.88;5046914;27;104581;-79
2023/06/19 08:19:44;;;;;;;2.30;2.05;;;;;;;29.31;45.51;98478.03;5039845;27;103187;-80
2023/06/19 08:22:11;;;;;;;2.25;2.13;;;;;;;29.53;45.13;98467.38;5064416;27;103214;-78
2023/06/19 08:24:40;;;;;;;2.75;2.22;;;;;;;29.56;44.31;98469.63;5049713;27;102766;-79
2023/06/19 08:27:08;;;;;;;2.60;2.30;;;;;;;30.12;43.47;98463.50;5071969;27;103780;-80
2023/06/19 08:29:36;;;;;;;2.47;2.22;;;;;;;29.92;44.40;98463.13;5045408;27;103324;-81
2023/06/19 08:32:08;;;;;;;2.30;2.10;;;;;;;30.77;42.04;98449.50;5049252;27;102986;-80
2023/06/19 08:34:36;;;;;;;2.28;2.10;;;;;;;31.02;41.67;98447.25;5045256;27;103699;-80
2023/06/19 08:37:05;;;;;;;2.47;2.28;;;;;;;30.55;41.81;98451.28;5062290;27;104028;-79
2023/06/19 08:39:33;;;;;;;2.60;2.13;;;;;;;31.28;41.23;98445.75;5059139;27;103320;-79
2023/06/19 08:42:03;;;;;;;2.40;2.28;;;;;;;31.29;40.56;98444.69;5066162;27;102725;-79
2023/06/19 08:44:31;;;;;;;2.50;2.30;;;;;;;30.89;41.69;98447.56;5058527;27;103934;-79
2023/06/19 08:46:59;;;;;;;2.75;2.50;;;;;;;30.01;42.93;98448.03;5070544;27;103962;-79
2023/06/19 08:49:30;;;;;;;2.53;2.33;;;;;;;29.89;43.73;98452.69;5062242;27;103259;-80
2023/06/19 08:51:58;;;;;;;2.88;2.38;;;;;;;30.09;42.02;98455.81;5063596;27;102714;-79
2023/06/19 08:54:26;;;;;;;2.40;2.20;;;;;;;30.68;42.17;98446.34;5069428;27;102788;-79
2023/06/19 08:56:54;;;;;;;2.70;2.50;;;;;;;30.68;41.75;98446.34;5072638;27;103966;-79
2023/06/19 08:59:22;;;;;;;2.60;2.40;;;;;;;30.00;44.07;98446.41;5058334;27;103230;-78
2023/06/19 09:01:52;;;;;;;2.60;2.40;;;;;;;29.76;44.40;98447.47;5072201;27;102654;-81
2023/06/19 09:04:32;;;;;;;2.58;2.38;;;;;;;30.73;42.45;98453.81;5039836;27;104383;-80
2023/06/19 09:07:02;;;;;;;2.58;2.30;;;;;;;31.80;40.15;98449.00;5062285;27;104085;-80
2023/06/19 09:09:45;;;;;;;3.17;2.60;;;;;;;31.06;41.77;98440.25;5049008;27;104086;-80
2023/06/19 09:12:15;;;;;;;2.58;2.38;;;;;;;32.04;41.47;98439.50;5044057;27;102737;-80
2023/06/19 09:14:47;;;;;;;2.80;2.60;;;;;;;32.45;40.94;98444.34;5046971;27;102855;-79
2023/06/19 09:17:19;;;;;;;2.70;2.50;;;;;;;33.19;40.59;98436.34;5061662;27;103721;-79
2023/06/19 09:19:51;;;;;;;4.90;2.97;;;;;;;31.17;41.44;98443.94;5045271;27;102991;-79
2023/06/19 09:22:22;;;;;;;2.80;2.60;;;;;;;31.85;40.35;98446.34;5065338;27;102891;-79
2023/06/19 09:24:50;;;;;;;3.10;2.80;;;;;;;32.38;40.33;98443.75;5064163;27;102997;-79
2023/06/19 09:27:20;;;;;;;2.60;2.40;;;;;;;33.23;38.84;98442.94;5042986;27;104119;-79
2023/06/19 09:29:50;;;;;;;3.20;3.00;;;;;;;33.29;39.49;98433.69;5063461;27;103198;-79
2023/06/19 09:32:20;;;;;;;3.47;2.97;;;;;;;32.55;39.76;98433.56;5063979;27;102723;-71
2023/06/19 09:34:51;;;;;;;2.63;2.40;;;;;;;32.63;39.44;98426.81;5042984;27;104106;-71
2023/06/19 09:37:23;;;;;;;4.60;2.70;;;;;;;31.67;40.40;98432.97;5055262;27;103995;-81
2023/06/19 09:39:54;;;;;;;3.90;2.73;;;;;;;32.40;40.03;98438.84;5061418;27;103147;-81
2023/06/19 09:42:29;;;;;;;2.60;2.50;;;;;;;33.91;38.36;98428.31;5063265;27;102778;-80
2023/06/19 09:45:02;;;;;;;2.90;2.70;;;;;;;33.32;37.58;98433.13;5064454;27;104153;-80
2023/06/19 09:47:36;;;;;;;2.80;2.60;;;;;;;34.18;36.88;98430.94;5067971;27;103270;-80
2023/06/19 09:50:07;;;;;;;3.25;3.05;;;;;;;33.55;36.40;98424.53;5065581;27;103258;-81
2023/06/19 09:52:35;;;;;;;3.03;2.83;;;;;;;32.43;38.90;98437.50;5039420;27;102895;-81
2023/06/19 09:55:08;;;;;;;3.33;2.95;;;;;;;33.98;37.07;98412.47;5047226;27;102952;-81
2023/06/19 09:57:37;;;;;;;2.80;2.60;;;;;;;33.88;36.89;98428.03;5041691;27;104234;-81
2023/06/19 10:00:10;;;;;;;3.20;2.90;;;;;;;31.51;39.69;98434.69;5048028;27;103321;-80
2023/06/19 10:02:42;;;;;;;3.83;2.90;;;;;;;30.99;41.87;98423.22;5048193;27;102838;-80
2023/06/19 10:05:14;;;;;;;3.38;2.97;;;;;;;32.57;39.58;98425.94;5069634;27;102752;-80
2023/06/19 10:07:46;;;;;;;3.03;2.83;;;;;;;33.41;39.46;98426.09;5046430;27;103384;-81
2023/06/19 10:10:24;;;;;;;3.25;3.00;;;;;;;31.94;41.24;98440.19;5069093;27;103308;-80
2023/06/19 10:12:55;;;;;;;4.00;3.47;;;;;;;31.98;41.40;98437.75;5064424;27;102809;-80
2023/06/19 10:15:24;;;;;;;3.40;3.10;;;;;;;33.50;39.13;98432.72;5071794;27;103631;-81
2023/06/19 10:18:00;;;;;;;3.80;3.50;;;;;;;32.73;39.60;98431.56;5075684;27;104711;-80
2023/06/19 10:20:32;;;;;;;4.05;3.45;;;;;;;31.37;42.18;98436.91;5047082;27;103317;-80
2023/06/19 10:23:03;;;;;;;3.55;3.25;;;;;;;31.85;41.80;98428.06;5062165;27;102634;-80
2023/06/19 10:25:33;;;;;;;3.50;3.20;;;;;;;31.94;41.24;98422.97;5070444;27;102888;-80
2023/06/19 10:28:05;;;;;;;3.63;3.33;;;;;;;31.20;42.44;98427.09;5065676;27;104307;-77
2023/06/19 10:30:34;;;;;;;6.70;3.40;;;;;;;32.46;40.33;98420.59;5055791;27;103766;-78
2023/06/19 10:33:03;;;;;;;3.30;3.10;;;;;;;32.22;41.44;98428.28;5055637;27;102866;-77
2023/06/19 10:35:40;;;;;;;3.40;3.17;;;;;;;32.05;42.22;98424.78;5064463;27;103251;-77
2023/06/19 10:38:11;;;;;;;3.60;3.30;;;;;;;31.50;42.43;98422.94;5061606;27;104117;-78
2023/06/19 10:40:38;;;;;;;3.60;3.20;;;;;;;30.88;43.32;98410.44;5047089;27;104316;-78
2023/06/19 10:43:06;;;;;;;3.40;2.92;;;;;;;31.29;43.11;98425.59;5064620;27;102826;-78
2023/06/19 10:45:34;;;;;;;3.72;3.00;;;;;;;30.89;43.13;98420.28;5077234;27;103082;-77
2023/06/19 10:48:04;;;;;;;3.13;2.80;;;;;;;31.03;43.52;98421.63;5047450;27;103226;-78
2023/06/19 10:50:35;;;;;;;3.03;2.83;;;;;;;31.94;42.79;98417.50;5070544;27;103218;-78
2023/06/19 10:53:05;;;;;;;3.20;2.90;;;;;;;31.97;41.48;98422.47;5049051;27;103080;-78
2023/06/19 10:55:32;;;;;;;3.22;2.92;;;;;;;32.78;39.39;98406.97;5074358;27;102754;-78
2023/06/19 10:58:03;;;;;;;3.27;3.00;;;;;;;32.48;40.69;98404.75;5064995;27;103693;-78
2023/06/19 11:00:33;;;;;;;3.30;3.00;;;;;;;32.26;43.63;98418.47;5050224;27;104196;-78
2023/06/19 11:03:04;;;;;;;3.88;3.13;;;;;;;31.26;43.63;98416.00;5055935;27;102724;-78
2023/06/19 11:05:32;;;;;;;3.30;3.00;;;;;;;31.72;41.92;98409.28;5048491;27;103256;-78
2023/06/19 11:08:00;;;;;;;3.80;3.40;;;;;;;31.23;42.91;98419.22;5069250;27;103544;-78
2023/06/19 11:10:32;;;;;;;3.40;3.10;;;;;;;33.12;40.32;98402.91;5062086;27;102720;-78
2023/06/19 11:13:00;;;;;;;3.43;3.23;;;;;;;32.29;41.92;98419.84;5060520;27;102915;-78
2023/06/19 11:15:31;;;;;;;3.67;3.40;;;;;;;31.43;42.22;98416.81;5047282;27;102696;-78
2023/06/19 11:18:00;;;;;;;3.50;3.20;;;;;;;31.63;41.18;98415.47;5051807;27;104294;-77
2023/06/19 11:20:30;;;;;;;4.40;3.08;;;;;;;32.89;39.92;98408.72;5067950;27;102677;-78
2023/06/19 11:22:59;;;;;;;3.53;3.05;;;;;;;33.33;38.83;98398.38;5047552;27;102671;-78
2023/06/19 11:25:37;;;;;;;3.10;2.90;;;;;;;32.69;41.02;98399.25;5065036;27;104093;-78
2023/06/19 11:28:05;;;;;;;3.83;3.53;;;;;;;31.86;41.12;98401.56;5045211;27;103371;-78
2023/06/19 11:30:35;;;;;;;3.78;3.40;;;;;;;31.76;41.26;98404.16;5061611;27;103116;-76
2023/06/19 11:33:03;;;;;;;3.30;3.00;;;;;;;32.42;40.14;98394.88;5067500;27;102934;-78
2023/06/19 11:35:36;;;;;;;3.80;3.50;;;;;;;33.00;38.83;98389.38;5068493;27;103741;-77
2023/06/19 11:38:06;;;;;;;3.10;2.90;;;;;;;34.91;36.37;98389.41;5050011;27;103569;-76
2023/06/19 11:40:41;;;;;;;3.08;2.80;;;;;;;34.61;36.82;98389.38;5069016;27;103191;-76